createdAt,value
2023-10-07T00:01:01.097Z,100.00
2023-10-07T00:04:07.164Z,100.00
2023-10-07T00:07:11.662Z,100.00
2023-10-07T00:10:26.751Z,99.76
2023-10-07T00:13:33.257Z,99.36
2023-10-07T00:16:37.631Z,99.77
2023-10-07T00:19:40.649Z,99.99
2023-10-07T00:22:48.908Z,100.00
2023-10-07T00:25:54.377Z,100.00
2023-10-07T00:29:03.572Z,100.00
2023-10-07T00:32:06.706Z,100.00
2023-10-07T00:35:12.699Z,100.00
2023-10-07T00:38:16.324Z,100.00
2023-10-07T00:41:20.066Z,100.00
2023-10-07T00:44:33.229Z,100.00
2023-10-07T00:47:36.631Z,100.00
2023-10-07T00:50:40.195Z,100.00
2023-10-07T00:53:46.558Z,100.00
2023-10-07T00:57:05.725Z,100.00
2023-10-07T01:00:15.800Z,100.00
2023-10-07T01:03:24.938Z,100.00
2023-10-07T01:06:28.075Z,100.00
2023-10-07T01:09:30.741Z,100.00
2023-10-07T01:12:40.024Z,100.00
2023-10-07T01:15:42.694Z,100.00
2023-10-07T01:18:45.711Z,100.00
2023-10-07T01:21:56.788Z,100.00
2023-10-07T01:24:59.668Z,100.00
2023-10-07T01:28:04.358Z,100.00
2023-10-07T01:31:13.978Z,100.00
2023-10-07T01:34:20.668Z,100.00
2023-10-07T01:37:23.759Z,100.00
2023-10-07T01:40:32.598Z,100.00
2023-10-07T01:43:41.725Z,100.00
2023-10-07T01:46:45.496Z,100.00
2023-10-07T01:49:54.542Z,100.00
2023-10-07T01:52:57.479Z,100.00
2023-10-07T01:56:06.224Z,100.00
2023-10-07T01:59:16.700Z,100.00
2023-10-07T02:02:26.700Z,100.00
2023-10-07T02:05:35.820Z,100.00
2023-10-07T02:08:38.566Z,100.00
2023-10-07T02:11:41.774Z,100.00
2023-10-07T02:14:44.410Z,100.00
2023-10-07T02:17:49.319Z,100.00
2023-10-07T02:21:06.503Z,100.00
2023-10-07T02:24:10.702Z,100.00
2023-10-07T02:27:18.726Z,100.00
2023-10-07T02:30:22.124Z,100.00
2023-10-07T02:33:28.048Z,100.00
2023-10-07T02:36:32.879Z,100.00
2023-10-07T02:39:49.041Z,100.00
2023-10-07T02:42:55.920Z,100.00
2023-10-07T02:46:02.838Z,100.00
2023-10-07T02:49:11.868Z,100.00
2023-10-07T02:52:18.326Z,100.00
2023-10-07T02:55:21.072Z,100.00
2023-10-07T02:58:59.403Z,100.00
2023-10-07T03:02:20.579Z,100.00
2023-10-07T03:05:31.048Z,100.00
2023-10-07T03:08:49.583Z,100.00
2023-10-07T03:11:54.437Z,100.00
2023-10-07T03:15:20.858Z,100.00
2023-10-07T03:18:24.920Z,100.00
2023-10-07T03:21:43.616Z,100.00
2023-10-07T03:24:56.102Z,100.00
2023-10-07T03:27:58.876Z,100.00
2023-10-07T03:31:01.933Z,100.00
2023-10-07T03:34:09.419Z,100.00
2023-10-07T03:37:13.537Z,100.00
2023-10-07T03:40:27.036Z,100.00
2023-10-07T03:43:30.420Z,100.00
2023-10-07T03:46:35.915Z,100.00
2023-10-07T03:49:42.229Z,100.00
2023-10-07T03:52:48.083Z,100.00
2023-10-07T03:55:51.783Z,99.67
2023-10-07T03:58:54.699Z,100.00
2023-10-07T04:01:57.779Z,100.00
2023-10-07T04:05:11.790Z,100.00
2023-10-07T04:08:14.992Z,100.00
2023-10-07T04:11:20.520Z,99.83
2023-10-07T04:14:29.173Z,99.62
2023-10-07T04:17:32.619Z,99.13
2023-10-07T04:21:04.713Z,99.24
2023-10-07T04:24:12.653Z,99.09
2023-10-07T04:27:20.704Z,99.41
2023-10-07T04:30:29.835Z,99.24
2023-10-07T04:33:41.208Z,99.18
2023-10-07T04:37:12.563Z,100.00
2023-10-07T04:40:16.369Z,99.99
2023-10-07T04:43:37.786Z,100.00
2023-10-07T04:46:48.016Z,100.00
2023-10-07T04:50:06.538Z,100.00
2023-10-07T04:53:10.357Z,99.69
2023-10-07T04:56:22.522Z,99.79
2023-10-07T04:59:25.551Z,99.55
2023-10-07T05:02:28.576Z,99.48
2023-10-07T05:05:34.386Z,99.94
2023-10-07T05:08:39.148Z,100.00
2023-10-07T05:11:44.298Z,100.00
2023-10-07T05:14:48.473Z,100.00
2023-10-07T05:17:53.928Z,100.00
2023-10-07T05:20:58.893Z,99.49
2023-10-07T05:24:03.946Z,99.44
2023-10-07T05:27:06.885Z,99.00
2023-10-07T05:30:14.126Z,98.84
2023-10-07T05:33:28.782Z,99.87
2023-10-07T05:36:31.819Z,99.57
2023-10-07T05:39:34.818Z,100.00
2023-10-07T05:42:37.475Z,99.34
2023-10-07T05:45:41.826Z,99.34
2023-10-07T05:48:44.793Z,99.47
2023-10-07T05:51:48.922Z,99.53
2023-10-07T05:54:54.285Z,100.00
2023-10-07T05:57:59.331Z,100.00
2023-10-07T06:01:02.075Z,100.00
2023-10-07T06:04:05.363Z,100.00
2023-10-07T06:07:08.089Z,100.00
2023-10-07T06:10:13.798Z,100.00
2023-10-07T06:13:16.420Z,100.00
2023-10-07T06:16:19.480Z,100.00
2023-10-07T06:19:22.271Z,100.00
2023-10-07T06:22:25.772Z,100.00
2023-10-07T06:25:34.603Z,99.90
2023-10-07T06:28:40.255Z,99.69
2023-10-07T06:31:43.221Z,99.45
2023-10-07T06:34:46.306Z,99.58
2023-10-07T06:37:51.369Z,100.00
2023-10-07T06:40:54.594Z,100.00
2023-10-07T06:44:01.101Z,100.00
2023-10-07T06:47:09.197Z,99.11
2023-10-07T06:50:18.597Z,98.77
2023-10-07T06:53:24.786Z,98.78
2023-10-07T06:56:28.100Z,97.40
2023-10-07T06:59:31.468Z,96.69
2023-10-07T07:02:36.916Z,95.61
2023-10-07T07:05:41.622Z,96.37
2023-10-07T07:08:45.504Z,95.51
2023-10-07T07:11:48.415Z,93.45
2023-10-07T07:15:06.189Z,91.42
2023-10-07T07:18:12.988Z,90.43
2023-10-07T07:21:27.805Z,88.93
2023-10-07T07:24:32.591Z,88.51
2023-10-07T07:27:35.300Z,86.69
2023-10-07T07:30:38.423Z,86.08
2023-10-07T07:33:42.790Z,85.30
2023-10-07T07:36:49.525Z,84.56
2023-10-07T07:39:52.197Z,84.55
2023-10-07T07:42:57.926Z,83.65
2023-10-07T07:46:22.306Z,82.53
2023-10-07T07:49:29.409Z,81.72
2023-10-07T07:52:33.471Z,80.23
2023-10-07T07:55:45.106Z,78.64
2023-10-07T07:58:50.805Z,78.09
2023-10-07T08:01:55.434Z,76.95
2023-10-07T08:05:04.591Z,75.30
2023-10-07T08:08:19.671Z,75.61
2023-10-07T08:11:23.671Z,75.22
2023-10-07T08:14:26.608Z,72.96
2023-10-07T08:17:29.826Z,74.35
2023-10-07T08:20:38.804Z,73.37
2023-10-07T08:23:45.619Z,71.26
2023-10-07T08:27:00.747Z,70.22
2023-10-07T08:30:09.405Z,68.21
2023-10-07T08:33:13.822Z,70.66
2023-10-07T08:36:18.846Z,68.58
2023-10-07T08:39:28.457Z,68.25
2023-10-07T08:42:32.273Z,66.02
2023-10-07T08:45:40.688Z,67.09
2023-10-07T08:48:51.534Z,66.50
2023-10-07T08:51:56.076Z,66.04
2023-10-07T08:55:01.117Z,65.54
2023-10-07T08:58:05.510Z,64.22
2023-10-07T09:01:18.631Z,64.25
2023-10-07T09:04:22.841Z,63.11
2023-10-07T09:07:33.584Z,64.21
2023-10-07T09:10:38.196Z,63.92
2023-10-07T09:13:41.710Z,63.74
2023-10-07T09:16:45.208Z,61.35
2023-10-07T09:19:54.507Z,61.49
2023-10-07T09:23:21.042Z,60.94
2023-10-07T09:26:31.608Z,61.47
2023-10-07T09:29:34.394Z,60.36
2023-10-07T09:32:39.163Z,60.60
2023-10-07T09:35:48.529Z,60.41
2023-10-07T09:39:12.904Z,59.44
2023-10-07T09:42:37.798Z,59.42
2023-10-07T09:45:41.080Z,59.33
2023-10-07T09:48:45.071Z,58.14
2023-10-07T09:51:51.757Z,58.32
2023-10-07T09:55:23.053Z,57.11
2023-10-07T09:58:38.341Z,55.07
2023-10-07T10:02:06.474Z,55.86
2023-10-07T10:05:42.292Z,53.69
2023-10-07T10:08:49.038Z,52.93
2023-10-07T10:12:14.423Z,53.82
2023-10-07T10:15:21.015Z,53.08
2023-10-07T10:18:37.132Z,52.46
2023-10-07T10:21:39.753Z,52.67
2023-10-07T10:24:44.455Z,52.65
2023-10-07T10:27:48.783Z,51.37
2023-10-07T10:30:55.010Z,50.79
2023-10-07T10:33:59.939Z,51.42
2023-10-07T10:37:07.172Z,51.78
2023-10-07T10:40:16.020Z,53.28
2023-10-07T10:43:25.750Z,51.97
2023-10-07T10:46:30.135Z,51.98
2023-10-07T10:49:33.263Z,52.32
2023-10-07T10:52:35.941Z,50.86
2023-10-07T10:55:39.585Z,49.93
2023-10-07T10:58:42.739Z,49.08
2023-10-07T11:01:51.402Z,50.12
2023-10-07T11:04:55.967Z,49.43
2023-10-07T11:07:59.199Z,47.48
2023-10-07T11:11:03.234Z,46.85
2023-10-07T11:14:10.934Z,46.87
2023-10-07T11:17:14.078Z,46.11
2023-10-07T11:20:20.891Z,44.53
2023-10-07T11:23:24.904Z,44.48
2023-10-07T11:26:32.325Z,44.96
2023-10-07T11:29:35.294Z,45.28
2023-10-07T11:32:40.694Z,44.13
2023-10-07T11:35:46.949Z,43.17
2023-10-07T11:38:50.240Z,44.15
2023-10-07T11:41:56.315Z,43.68
2023-10-07T11:44:59.374Z,43.56
2023-10-07T11:48:03.110Z,43.60
2023-10-07T11:51:06.041Z,44.23
2023-10-07T11:54:08.729Z,44.19
2023-10-07T11:57:11.756Z,43.49
2023-10-07T12:00:24.653Z,44.87
2023-10-07T12:03:27.775Z,42.99
2023-10-07T12:06:30.695Z,41.83
2023-10-07T12:09:35.165Z,43.56
2023-10-07T12:12:37.774Z,41.01
2023-10-07T12:15:53.791Z,40.95
2023-10-07T12:19:06.155Z,41.70
2023-10-07T12:22:09.151Z,40.84
2023-10-07T12:25:17.400Z,41.59
2023-10-07T12:28:20.375Z,41.94
2023-10-07T12:31:24.449Z,41.34
2023-10-07T12:34:27.958Z,40.33
2023-10-07T12:37:32.471Z,40.41
2023-10-07T12:40:35.471Z,41.09
2023-10-07T12:43:39.575Z,40.24
2023-10-07T12:46:44.767Z,41.16
2023-10-07T12:49:47.410Z,40.86
2023-10-07T12:52:59.029Z,40.88
2023-10-07T12:56:21.158Z,40.06
2023-10-07T12:59:24.698Z,40.80
2023-10-07T13:02:29.776Z,40.30
2023-10-07T13:05:34.312Z,40.63
2023-10-07T13:08:40.094Z,40.75
2023-10-07T13:11:44.525Z,39.85
2023-10-07T13:14:47.800Z,40.01
2023-10-07T13:17:51.213Z,39.06
2023-10-07T13:20:54.369Z,38.72
2023-10-07T13:23:58.356Z,38.76
2023-10-07T13:27:03.354Z,39.03
2023-10-07T13:30:13.011Z,38.87
2023-10-07T13:33:15.686Z,39.05
2023-10-07T13:36:18.715Z,39.05
2023-10-07T13:39:21.342Z,39.35
2023-10-07T13:42:24.460Z,38.81
2023-10-07T13:45:32.294Z,38.60
2023-10-07T13:48:35.285Z,38.65
2023-10-07T13:51:44.538Z,38.73
2023-10-07T13:55:10.294Z,38.67
2023-10-07T13:58:14.607Z,39.68
2023-10-07T14:01:17.599Z,39.33
2023-10-07T14:04:20.754Z,39.28
2023-10-07T14:07:24.581Z,40.25
2023-10-07T14:10:27.559Z,39.68
2023-10-07T14:13:36.881Z,40.83
2023-10-07T14:16:41.621Z,39.99
2023-10-07T14:19:46.300Z,40.84
2023-10-07T14:22:49.327Z,41.30
2023-10-07T14:25:54.058Z,41.78
2023-10-07T14:28:57.619Z,41.33
2023-10-07T14:32:01.074Z,41.95
2023-10-07T14:35:10.616Z,42.34
2023-10-07T14:38:14.163Z,42.79
2023-10-07T14:41:17.175Z,43.63
2023-10-07T14:44:20.298Z,43.92
2023-10-07T14:47:24.097Z,44.20
2023-10-07T14:50:27.938Z,44.91
2023-10-07T14:53:32.847Z,45.07
2023-10-07T14:56:37.351Z,45.39
2023-10-07T14:59:41.057Z,46.30
2023-10-07T15:02:47.862Z,47.88
2023-10-07T15:05:50.947Z,48.29
2023-10-07T15:08:54.769Z,49.24
2023-10-07T15:11:58.160Z,51.45
2023-10-07T15:15:01.055Z,52.93
2023-10-07T15:18:04.720Z,55.19
2023-10-07T15:21:07.539Z,56.30
2023-10-07T15:24:11.564Z,57.70
2023-10-07T15:27:15.897Z,60.70
2023-10-07T15:30:19.772Z,61.29
2023-10-07T15:33:24.298Z,62.34
2023-10-07T15:36:27.407Z,62.90
2023-10-07T15:39:32.395Z,63.45
2023-10-07T15:42:39.349Z,64.45
2023-10-07T15:45:47.144Z,65.32
2023-10-07T15:48:50.363Z,66.19
2023-10-07T15:51:53.664Z,66.72
2023-10-07T15:55:02.575Z,66.84
2023-10-07T15:58:05.432Z,67.95
2023-10-07T16:01:11.552Z,68.25
2023-10-07T16:04:16.615Z,68.81
2023-10-07T16:07:19.927Z,69.02
2023-10-07T16:10:22.888Z,69.55
2023-10-07T16:13:26.447Z,69.76
2023-10-07T16:16:29.406Z,70.60
2023-10-07T16:19:32.186Z,70.79
2023-10-07T16:22:35.198Z,72.09
2023-10-07T16:25:37.768Z,72.51
2023-10-07T16:28:42.197Z,72.88
2023-10-07T16:31:45.001Z,72.48
2023-10-07T16:34:49.226Z,73.10
2023-10-07T16:37:52.303Z,73.21
2023-10-07T16:40:55.267Z,73.30
2023-10-07T16:43:58.109Z,72.55
2023-10-07T16:47:01.306Z,72.76
2023-10-07T16:50:04.747Z,73.93
2023-10-07T16:53:09.517Z,75.56
2023-10-07T16:56:14.368Z,76.34
2023-10-07T16:59:17.713Z,77.13
2023-10-07T17:02:21.493Z,77.63
2023-10-07T17:05:24.540Z,77.88
2023-10-07T17:08:27.708Z,78.98
2023-10-07T17:11:30.680Z,79.08
2023-10-07T17:14:34.123Z,79.57
2023-10-07T17:17:37.399Z,79.03
2023-10-07T17:20:41.858Z,79.45
2023-10-07T17:23:44.819Z,79.81
2023-10-07T17:26:47.379Z,80.15
2023-10-07T17:29:51.566Z,79.64
2023-10-07T17:33:02.132Z,79.49
2023-10-07T17:36:05.443Z,80.05
2023-10-07T17:39:12.552Z,80.32
2023-10-07T17:42:16.028Z,80.36
2023-10-07T17:45:19.130Z,80.44
2023-10-07T17:48:22.986Z,80.73
2023-10-07T17:51:25.816Z,79.10
2023-10-07T17:54:29.068Z,79.31
2023-10-07T17:57:32.382Z,78.72
2023-10-07T18:00:35.702Z,79.06
2023-10-07T18:03:40.215Z,78.94
2023-10-07T18:06:42.955Z,79.23
2023-10-07T18:09:45.901Z,80.15
2023-10-07T18:12:50.591Z,80.38
2023-10-07T18:15:53.789Z,80.27
2023-10-07T18:18:56.454Z,80.34
2023-10-07T18:21:59.464Z,80.96
2023-10-07T18:25:04.261Z,80.39
2023-10-07T18:28:07.280Z,80.37
2023-10-07T18:31:15.105Z,80.08
2023-10-07T18:34:18.106Z,79.38
2023-10-07T18:37:21.641Z,79.61
2023-10-07T18:40:26.122Z,79.71
2023-10-07T18:43:28.822Z,80.04
2023-10-07T18:46:31.896Z,79.18
2023-10-07T18:49:35.070Z,79.59
2023-10-07T18:52:38.513Z,79.79
2023-10-07T18:55:41.794Z,79.78
2023-10-07T18:58:45.156Z,80.12
2023-10-07T19:01:50.542Z,80.52
2023-10-07T19:04:53.486Z,80.47
2023-10-07T19:07:56.420Z,81.03
2023-10-07T19:11:10.891Z,80.70
2023-10-07T19:14:14.910Z,80.63
2023-10-07T19:17:18.494Z,78.88
2023-10-07T19:20:21.203Z,79.92
2023-10-07T19:23:28.944Z,79.19
2023-10-07T19:26:31.610Z,78.62
2023-10-07T19:29:34.838Z,79.67
2023-10-07T19:32:38.904Z,79.51
2023-10-07T19:35:42.042Z,78.49
2023-10-07T19:38:44.790Z,78.78
2023-10-07T19:41:47.952Z,79.43
2023-10-07T19:44:50.754Z,79.00
2023-10-07T19:47:53.810Z,77.96
2023-10-07T19:50:57.198Z,76.99
2023-10-07T19:54:03.957Z,74.71
2023-10-07T19:57:06.846Z,74.79
2023-10-07T20:00:11.103Z,74.35
2023-10-07T20:03:14.271Z,73.68
2023-10-07T20:06:17.114Z,75.16
2023-10-07T20:09:20.045Z,73.51
2023-10-07T20:12:22.842Z,74.51
2023-10-07T20:15:29.378Z,73.36
2023-10-07T20:18:32.135Z,74.33
2023-10-07T20:21:35.206Z,75.05
2023-10-07T20:24:37.923Z,75.96
2023-10-07T20:27:41.369Z,76.02
2023-10-07T20:30:44.383Z,76.45
2023-10-07T20:33:47.853Z,75.87
2023-10-07T20:36:50.993Z,76.82
2023-10-07T20:39:54.146Z,76.53
2023-10-07T20:42:56.784Z,76.60
2023-10-07T20:46:04.970Z,77.06
2023-10-07T20:49:07.860Z,77.20
2023-10-07T20:52:11.338Z,77.37
2023-10-07T20:55:13.990Z,78.04
2023-10-07T20:58:17.072Z,77.55
2023-10-07T21:01:21.541Z,76.95
2023-10-07T21:04:25.046Z,77.44
2023-10-07T21:07:27.789Z,78.07
2023-10-07T21:10:30.700Z,77.11
2023-10-07T21:13:33.417Z,78.12
2023-10-07T21:16:36.471Z,78.02
2023-10-07T21:19:39.573Z,77.86
2023-10-07T21:22:42.437Z,77.81
2023-10-07T21:25:47.551Z,78.06
2023-10-07T21:28:55.684Z,78.07
2023-10-07T21:31:58.393Z,77.93
2023-10-07T21:35:01.380Z,77.78
2023-10-07T21:38:05.589Z,78.26
2023-10-07T21:41:08.685Z,77.15
2023-10-07T21:44:11.352Z,76.68
2023-10-07T21:47:14.253Z,76.48
2023-10-07T21:50:16.941Z,75.95
2023-10-07T21:53:20.007Z,77.82
2023-10-07T21:56:23.194Z,78.16
2023-10-07T21:59:27.574Z,77.47
2023-10-07T22:02:33.709Z,77.07
2023-10-07T22:05:37.182Z,76.96
2023-10-07T22:08:42.535Z,77.61
2023-10-07T22:11:45.967Z,77.42
2023-10-07T22:14:48.651Z,77.57
2023-10-07T22:17:51.881Z,77.22
2023-10-07T22:20:56.594Z,77.35
2023-10-07T22:24:00.226Z,77.22
2023-10-07T22:27:03.087Z,77.14
2023-10-07T22:30:10.872Z,77.35
2023-10-07T22:33:17.213Z,77.29
2023-10-07T22:36:23.488Z,77.24
2023-10-07T22:39:32.057Z,77.42
2023-10-07T22:42:37.510Z,77.67
2023-10-07T22:45:46.437Z,77.44
2023-10-07T22:48:50.259Z,77.21
2023-10-07T22:51:56.436Z,77.45
2023-10-07T22:55:14.903Z,78.65
2023-10-07T22:58:19.859Z,79.00
2023-10-07T23:01:38.271Z,78.77
2023-10-07T23:04:48.477Z,78.64
2023-10-07T23:07:55.017Z,78.35
2023-10-07T23:10:59.568Z,77.98
2023-10-07T23:14:23.997Z,78.31
2023-10-07T23:17:32.464Z,78.51
2023-10-07T23:21:04.863Z,78.82
2023-10-07T23:24:09.912Z,79.12
2023-10-07T23:27:23.162Z,78.24
2023-10-07T23:30:29.690Z,78.64
2023-10-07T23:33:39.369Z,79.04
2023-10-07T23:36:45.539Z,79.86
2023-10-07T23:40:00.243Z,79.46
2023-10-07T23:43:11.010Z,79.66
2023-10-07T23:46:16.257Z,80.02
2023-10-07T23:49:20.958Z,80.29
2023-10-07T23:52:24.732Z,80.40
2023-10-07T23:55:30.182Z,80.92
2023-10-07T23:58:44.627Z,80.98
